Time;durP1;ratioP1;P1;durP2;ratioP2;P2;SDS_P1;SDS_P2;PMS_P1;PMS_P2;Temp;Humidity;BMP_temperature;BMP_pressure;BME280_temperature;BME280_humidity;BME280_pressure;Samples;Min_cycle;Max_cycle;Signal;HPM_P1;HPM_P2
2021/11/18 00:00:44;;;;;;;39.40;17.45;;;;;;;5.71;100.00;102053.53;5059364;28;20123;-87
2021/11/18 00:03:11;;;;;;;32.45;17.33;;;;;;;5.73;100.00;102050.78;5061025;28;20028;-87
2021/11/18 00:05:39;;;;;;;32.85;16.42;;;;;;;5.73;100.00;102059.63;5062490;28;20044;-89
2021/11/18 00:08:05;;;;;;;28.48;15.73;;;;;;;5.72;100.00;102057.06;5078141;28;20123;-88
2021/11/18 00:10:45;;;;;;;32.00;16.33;;;;;;;5.71;100.00;102045.56;5059315;28;20048;-88
2021/11/18 00:13:15;;;;;;;32.50;16.40;;;;;;;5.71;100.00;102056.22;5031713;28;20037;-90
2021/11/18 00:15:42;;;;;;;34.15;17.15;;;;;;;5.73;100.00;102051.63;5042647;28;20048;-88
2021/11/18 00:18:12;;;;;;;33.83;17.20;;;;;;;5.72;100.00;102041.91;5079975;28;20040;-87
2021/11/18 00:20:44;;;;;;;31.60;15.88;;;;;;;5.73;100.00;102032.16;5084217;28;20127;-87
2021/11/18 00:23:10;;;;;;;26.80;15.25;;;;;;;5.76;100.00;102037.28;5084955;28;20028;-88
2021/11/18 00:25:36;;;;;;;30.88;16.63;;;;;;;5.79;100.00;102050.38;5084399;28;20517;-87
2021/11/18 00:28:02;;;;;;;35.15;16.20;;;;;;;5.78;100.00;102048.66;5083208;28;20050;-86
2021/11/18 00:30:28;;;;;;;31.17;16.80;;;;;;;5.79;100.00;102056.56;5065603;28;20048;-88
2021/11/18 00:32:54;;;;;;;28.02;14.63;;;;;;;5.76;100.00;102056.75;5064814;28;20040;-87
2021/11/18 00:35:23;;;;;;;35.83;15.30;;;;;;;5.76;100.00;102058.56;5066468;28;20035;-89
2021/11/18 00:37:49;;;;;;;33.67;15.20;;;;;;;5.76;100.00;102058.56;5082341;28;20043;-87
2021/11/18 00:40:19;;;;;;;35.22;15.38;;;;;;;5.76;100.00;102063.91;5079862;28;20040;-87
2021/11/18 00:42:46;;;;;;;34.35;15.10;;;;;;;5.75;100.00;102064.84;5061833;28;20076;-87
2021/11/18 00:45:14;;;;;;;36.15;16.00;;;;;;;5.73;100.00;102074.75;5065641;28;20047;-87
2021/11/18 00:47:39;;;;;;;33.97;14.85;;;;;;;5.74;100.00;102077.31;5061670;28;20092;-88
2021/11/18 00:50:07;;;;;;;32.45;14.60;;;;;;;5.75;100.00;102080.81;5063838;28;20152;-87
2021/11/18 00:52:34;;;;;;;25.80;14.25;;;;;;;5.73;100.00;102080.09;5057521;28;20052;-87
2021/11/18 00:55:00;;;;;;;30.02;14.05;;;;;;;5.75;100.00;102075.50;5077296;28;20118;-87
2021/11/18 00:57:26;;;;;;;27.98;13.75;;;;;;;5.73;100.00;102077.44;5071882;28;20123;-87
2021/11/18 00:59:51;;;;;;;33.03;13.98;;;;;;;5.71;100.00;102087.31;5068239;28;20075;-87
2021/11/18 01:02:17;;;;;;;35.25;13.90;;;;;;;5.69;100.00;102078.56;5078949;28;20062;-87
2021/11/18 01:04:44;;;;;;;31.17;13.70;;;;;;;5.70;100.00;102081.16;5060091;28;20068;-89
2021/11/18 01:07:11;;;;;;;29.10;16.60;;;;;;;5.71;100.00;102079.34;5060520;28;20044;-88
2021/11/18 01:09:37;;;;;;;25.33;14.40;;;;;;;5.68;100.00;102079.53;5043862;28;20049;-88
2021/11/18 01:12:09;;;;;;;26.42;14.88;;;;;;;5.68;100.00;102076.88;5064384;28;20053;-87
2021/11/18 01:14:35;;;;;;;31.83;15.32;;;;;;;5.67;100.00;102073.34;5080602;28;20044;-87
2021/11/18 01:17:01;;;;;;;27.65;13.77;;;;;;;5.68;100.00;102080.38;5063458;28;20052;-88
2021/11/18 01:19:27;;;;;;;28.60;13.68;;;;;;;5.65;100.00;102078.78;5063256;28;20044;-87
2021/11/18 01:21:54;;;;;;;27.55;15.20;;;;;;;5.65;100.00;102078.78;5064251;28;20047;-87
2021/11/18 01:24:20;;;;;;;26.38;14.52;;;;;;;5.67;100.00;102081.34;5042414;28;20103;-87
2021/11/18 01:26:46;;;;;;;31.98;14.50;;;;;;;5.69;100.00;102092.72;5063430;28;20122;-87
2021/11/18 01:29:11;;;;;;;27.58;14.48;;;;;;;5.71;100.00;102087.31;5059351;28;20746;-88
2021/11/18 01:31:38;;;;;;;32.47;16.10;;;;;;;5.71;100.00;102089.97;5062348;28;20761;-87
2021/11/18 01:34:04;;;;;;;26.58;15.27;;;;;;;5.70;100.00;102113.09;5060713;28;20068;-87
2021/11/18 01:36:29;;;;;;;32.38;16.33;;;;;;;5.66;100.00;102119.56;5064482;28;20043;-87
2021/11/18 01:38:55;;;;;;;31.10;15.25;;;;;;;5.64;100.00;102127.69;5060337;28;20041;-87
2021/11/18 01:41:28;;;;;;;36.15;14.93;;;;;;;5.63;100.00;102122.44;5064358;28;20055;-88
2021/11/18 01:44:03;;;;;;;31.60;14.75;;;;;;;5.61;100.00;102121.66;5072348;28;20044;-87
2021/11/18 01:46:33;;;;;;;29.52;14.85;;;;;;;5.59;100.00;102128.94;5063891;28;20040;-86
2021/11/18 01:49:03;;;;;;;33.92;15.50;;;;;;;5.57;100.00;102137.00;5079467;28;20560;-87
2021/11/18 01:51:38;;;;;;;31.77;14.70;;;;;;;5.56;100.00;102129.97;5065697;28;20044;-88
2021/11/18 01:54:04;;;;;;;30.02;15.35;;;;;;;5.54;100.00;102134.53;5072879;28;20486;-87
2021/11/18 01:56:33;;;;;;;32.38;16.30;;;;;;;5.54;100.00;102142.53;5059575;28;20036;-87
2021/11/18 01:59:06;;;;;;;31.13;14.98;;;;;;;5.54;100.00;102139.88;5070325;28;20032;-87
2021/11/18 02:01:31;;;;;;;39.53;17.00;;;;;;;5.54;100.00;102129.22;5067799;28;20654;-87
2021/11/18 02:03:57;;;;;;;34.40;15.40;;;;;;;5.51;100.00;102140.06;5086072;28;20044;-87
2021/11/18 02:06:30;;;;;;;33.95;17.58;;;;;;;5.50;100.00;102138.38;5089658;28;20058;-87
2021/11/18 02:08:55;;;;;;;31.40;17.25;;;;;;;5.48;100.00;102137.59;5087992;28;20045;-87
2021/11/18 02:11:46;;;;;;;34.83;17.30;;;;;;;5.44;100.00;102138.75;5089816;28;20040;-87
2021/11/18 02:14:16;;;;;;;36.55;17.15;;;;;;;5.44;100.00;102128.13;5060727;28;20051;-87
2021/11/18 02:16:43;;;;;;;34.75;17.33;;;;;;;5.40;100.00;102123.91;5086159;28;20449;-86
2021/11/18 02:19:10;;;;;;;34.10;16.90;;;;;;;5.37;100.00;102121.44;5054057;28;20043;-87
2021/11/18 02:21:37;;;;;;;35.92;16.85;;;;;;;5.36;100.00;102125.09;5069483;28;20036;-87
2021/11/18 02:24:06;;;;;;;28.88;15.65;;;;;;;5.36;100.00;102120.59;5085428;28;20425;-87
2021/11/18 02:26:31;;;;;;;32.90;17.45;;;;;;;5.35;100.00;102121.56;5084876;28;20040;-87
2021/11/18 02:29:04;;;;;;;37.25;17.83;;;;;;;5.32;100.00;102121.78;5064651;28;20430;-87
2021/11/18 02:31:44;;;;;;;35.33;17.70;;;;;;;5.31;100.00;102112.06;5068969;28;20044;-87
2021/11/18 02:34:18;;;;;;;37.97;18.05;;;;;;;5.31;100.00;102100.56;5031406;28;20040;-87
2021/11/18 02:36:44;;;;;;;28.40;15.93;;;;;;;5.27;100.00;102107.88;5084292;28;20052;-87
2021/11/18 02:39:11;;;;;;;38.20;18.23;;;;;;;5.28;100.00;102114.06;5065609;28;20153;-88
2021/11/18 02:41:39;;;;;;;34.13;17.80;;;;;;;5.24;100.00;102113.41;5088087;28;20051;-87
2021/11/18 02:44:06;;;;;;;34.83;17.17;;;;;;;5.28;100.00;102116.72;5082786;28;20088;-87
2021/11/18 02:46:34;;;;;;;36.17;17.35;;;;;;;5.28;100.00;102116.72;5086974;28;20054;-87
2021/11/18 02:48:59;;;;;;;39.83;19.20;;;;;;;5.30;100.00;102121.00;5067416;28;20059;-87
2021/11/18 02:51:25;;;;;;;36.92;19.25;;;;;;;5.30;100.00;102114.81;5085922;28;20078;-88
2021/11/18 02:53:51;;;;;;;37.65;19.77;;;;;;;5.30;100.00;102104.19;5084723;28;20110;-88
2021/11/18 02:56:16;;;;;;;33.72;20.17;;;;;;;5.30;100.00;102104.19;5062498;28;20073;-87
2021/11/18 02:58:43;;;;;;;38.15;22.50;;;;;;;5.28;100.00;102108.75;5086793;28;20043;-87
2021/11/18 03:01:29;;;;;;;42.97;22.48;;;;;;;5.29;100.00;102113.94;5086354;28;20040;-87
2021/11/18 03:03:56;;;;;;;37.85;20.30;;;;;;;5.28;100.00;102122.91;5075934;28;20096;-88
2021/11/18 03:06:24;;;;;;;43.80;22.85;;;;;;;5.31;100.00;102137.81;5086613;28;20525;-87
2021/11/18 03:08:50;;;;;;;40.67;23.17;;;;;;;5.31;100.00;102138.66;5068191;28;20051;-87
2021/11/18 03:11:18;;;;;;;42.53;22.17;;;;;;;5.30;100.00;102136.13;5078392;28;20115;-87
2021/11/18 03:13:44;;;;;;;42.47;21.63;;;;;;;5.31;100.00;102135.16;5082768;28;20097;-90
2021/11/18 03:16:12;;;;;;;41.95;20.65;;;;;;;5.29;100.00;102137.06;5088469;28;20056;-86
2021/11/18 03:18:39;;;;;;;41.92;21.88;;;;;;;5.35;100.00;102149.97;5091753;28;20497;-87
2021/11/18 03:21:08;;;;;;;45.38;23.77;;;;;;;5.37;100.00;102148.06;5067914;28;20063;-87
2021/11/18 03:23:34;;;;;;;43.60;21.95;;;;;;;5.37;100.00;102142.75;5055636;28;20036;-87
2021/11/18 03:26:00;;;;;;;44.75;22.45;;;;;;;5.36;100.00;102146.38;5068480;28;20028;-87
2021/11/18 03:28:29;;;;;;;36.13;22.63;;;;;;;5.39;100.00;102152.34;5085024;28;20047;-87
2021/11/18 03:30:56;;;;;;;45.92;22.95;;;;;;;5.40;100.00;102154.06;5085798;28;20090;-87
2021/11/18 03:33:37;;;;;;;40.83;21.52;;;;;;;5.41;100.00;102154.94;5068011;28;20039;-88
2021/11/18 03:36:04;;;;;;;40.47;21.80;;;;;;;5.43;100.00;102161.00;5068336;28;20074;-87
2021/11/18 03:38:33;;;;;;;39.92;22.60;;;;;;;5.43;100.00;102139.69;5082137;28;20526;-88
2021/11/18 03:41:06;;;;;;;47.95;24.52;;;;;;;5.43;100.00;102131.72;5085060;28;20097;-88
2021/11/18 03:43:40;;;;;;;42.65;25.20;;;;;;;5.47;100.00;102145.66;5083445;28;20047;-87
2021/11/18 03:46:07;;;;;;;44.58;25.58;;;;;;;5.49;100.00;102157.94;5067892;28;20048;-87
2021/11/18 03:48:36;;;;;;;45.60;23.83;;;;;;;5.50;100.00;102158.81;5085611;28;20047;-87
2021/11/18 03:51:04;;;;;;;;;;;;;;;5.51;100.00;102156.03;5085621;28;20390;-87
2021/11/18 03:53:38;;;;;;;40.35;23.00;;;;;;;5.42;100.00;102157.47;5081961;28;19965;-89
2021/11/18 03:56:07;;;;;;;45.15;27.58;;;;;;;5.47;100.00;102145.66;5078849;28;20072;-88
2021/11/18 03:58:34;;;;;;;46.65;26.67;;;;;;;5.49;100.00;102149.94;5083465;28;20048;-87
2021/11/18 04:01:00;;;;;;;54.70;26.63;;;;;;;5.49;100.00;102152.59;5065971;28;20056;-87
2021/11/18 04:03:28;;;;;;;48.75;25.42;;;;;;;5.53;100.00;102158.63;5060966;28;20040;-87
2021/11/18 04:05:54;;;;;;;43.17;23.17;;;;;;;5.55;100.00;102152.25;5062324;28;20041;-88
2021/11/18 04:08:20;;;;;;;50.58;29.23;;;;;;;5.57;100.00;102152.13;5048624;28;20036;-87
2021/11/18 04:10:46;;;;;;;49.40;28.92;;;;;;;5.59;100.00;102145.75;5070802;28;20040;-87
2021/11/18 04:13:12;;;;;;;42.28;24.25;;;;;;;5.58;100.00;102153.81;5069306;28;20055;-87
2021/11/18 04:15:38;;;;;;;43.53;24.90;;;;;;;5.61;100.00;102146.53;5081641;28;20041;-87
2021/11/18 04:18:04;;;;;;;53.05;28.33;;;;;;;5.62;100.00;102145.56;5061853;28;20091;-87
2021/11/18 04:20:31;;;;;;;49.95;26.33;;;;;;;5.65;100.00;102145.34;5081081;28;20056;-89
2021/11/18 04:22:58;;;;;;;46.33;27.75;;;;;;;5.70;100.00;102139.75;5064353;28;20044;-88
2021/11/18 04:25:31;;;;;;;46.10;27.83;;;;;;;5.73;100.00;102144.03;5057039;28;20037;-87
2021/11/18 04:27:57;;;;;;;49.03;23.88;;;;;;;5.74;100.00;102143.91;5079597;28;20045;-87
2021/11/18 04:30:29;;;;;;;45.63;27.08;;;;;;;5.74;100.00;102146.56;5064786;28;20044;-87
2021/11/18 04:32:55;;;;;;;48.40;27.83;;;;;;;5.76;100.00;102136.69;5078202;28;20039;-87
2021/11/18 04:35:20;;;;;;;43.92;25.27;;;;;;;5.76;100.00;102134.00;5063760;28;20036;-87
2021/11/18 04:37:46;;;;;;;49.53;25.55;;;;;;;5.77;100.00;102138.38;5063343;28;20033;-87
2021/11/18 04:40:11;;;;;;;47.08;24.60;;;;;;;5.77;100.00;102129.53;5064918;28;20094;-87
2021/11/18 04:42:39;;;;;;;50.92;25.10;;;;;;;5.77;100.00;102124.19;5059657;28;20127;-87
2021/11/18 04:45:06;;;;;;;41.63;25.83;;;;;;;5.76;100.00;102114.50;5075275;28;20040;-87
2021/11/18 04:47:33;;;;;;;49.15;26.85;;;;;;;5.81;100.00;102129.25;5071132;28;20040;-87
2021/11/18 04:49:58;;;;;;;44.47;24.75;;;;;;;5.82;100.00;102135.41;5076267;28;20064;-87
2021/11/18 04:52:24;;;;;;;47.75;24.42;;;;;;;5.81;100.00;102139.03;5047159;28;20042;-87
2021/11/18 04:54:49;;;;;;;43.05;23.40;;;;;;;5.81;100.00;102125.69;5055236;28;20056;-88
2021/11/18 04:57:15;;;;;;;49.38;24.77;;;;;;;5.82;100.00;102122.09;5067661;28;20041;-87
2021/11/18 04:59:41;;;;;;;53.53;27.25;;;;;;;5.85;100.00;102124.56;5063709;28;20051;-87
2021/11/18 05:02:07;;;;;;;42.05;26.02;;;;;;;5.84;100.00;102134.38;5060941;28;20038;-86
2021/11/18 05:04:33;;;;;;;48.22;24.35;;;;;;;5.84;100.00;102139.69;5064311;28;20045;-87
2021/11/18 05:06:59;;;;;;;47.13;25.58;;;;;;;5.84;100.00;102129.03;5076893;28;20048;-87
2021/11/18 05:09:27;;;;;;;51.20;28.20;;;;;;;5.84;100.00;102141.47;5061917;28;20032;-89
2021/11/18 05:11:53;;;;;;;46.03;23.90;;;;;;;5.84;100.00;102142.34;5062538;28;20407;-87
2021/11/18 05:14:19;;;;;;;43.63;23.20;;;;;;;5.85;100.00;102133.41;5062486;28;20487;-89
2021/11/18 05:16:44;;;;;;;41.38;24.00;;;;;;;5.87;100.00;102139.50;5062079;28;20050;-88
2021/11/18 05:19:10;;;;;;;51.58;27.65;;;;;;;5.89;100.00;102139.38;5071591;28;20051;-87
2021/11/18 05:21:35;;;;;;;47.10;26.05;;;;;;;5.92;100.00;102140.97;5061384;28;20059;-87
2021/11/18 05:24:04;;;;;;;45.05;24.35;;;;;;;5.89;100.00;102134.91;5063193;28;20045;-87
2021/11/18 05:26:31;;;;;;;43.78;25.08;;;;;;;5.89;100.00;102132.22;5062712;28;20214;-87
2021/11/18 05:28:56;;;;;;;51.45;27.27;;;;;;;5.91;100.00;102132.16;5059974;28;20052;-87
2021/11/18 05:31:26;;;;;;;44.88;24.77;;;;;;;5.92;100.00;102123.19;5064312;28;20045;-87
2021/11/18 05:33:51;;;;;;;42.80;24.75;;;;;;;5.92;100.00;102128.50;5064436;28;20047;-87
2021/11/18 05:36:18;;;;;;;45.53;25.13;;;;;;;5.93;100.00;102121.38;5067489;28;20044;-86
2021/11/18 05:38:44;;;;;;;42.13;23.27;;;;;;;5.93;100.00;102135.59;5064415;28;20430;-87
2021/11/18 05:41:12;;;;;;;46.85;26.38;;;;;;;5.94;100.00;102137.31;5052884;28;20040;-87
2021/11/18 05:43:42;;;;;;;49.38;26.38;;;;;;;5.95;100.00;102147.00;5081980;28;20044;-87
2021/11/18 05:46:10;;;;;;;46.90;26.60;;;;;;;5.95;100.00;102128.34;5084519;28;20050;-87
2021/11/18 05:48:36;;;;;;;54.97;25.80;;;;;;;5.96;100.00;102130.06;5068857;28;20048;-88
2021/11/18 05:51:02;;;;;;;45.20;25.95;;;;;;;5.97;100.00;102138.91;5085752;28;20421;-87
2021/11/18 05:53:34;;;;;;;51.35;28.02;;;;;;;5.96;100.00;102124.75;5090214;28;20067;-87
2021/11/18 05:56:03;;;;;;;51.10;26.17;;;;;;;5.98;100.00;102129.94;5084867;28;20123;-87
2021/11/18 05:58:30;;;;;;;50.33;28.25;;;;;;;5.97;100.00;102123.78;5086805;28;20067;-88
2021/11/18 06:00:56;;;;;;;45.53;25.33;;;;;;;5.99;100.00;102123.69;5085350;28;20032;-87
2021/11/18 06:03:21;;;;;;;47.67;26.38;;;;;;;6.01;100.00;102135.94;5090149;28;20043;-86
2021/11/18 06:05:48;;;;;;;47.30;26.88;;;;;;;6.00;100.00;102131.56;5085626;28;20046;-89
2021/11/18 06:08:14;;;;;;;47.38;24.55;;;;;;;6.00;100.00;102147.56;5069500;28;20422;-88
2021/11/18 06:10:40;;;;;;;54.42;27.55;;;;;;;6.01;100.00;102149.28;5090362;28;20052;-87
2021/11/18 06:13:06;;;;;;;45.38;24.88;;;;;;;6.01;100.00;102157.28;5083112;28;20595;-87
2021/11/18 06:15:33;;;;;;;49.78;25.40;;;;;;;6.01;100.00;102157.28;5085623;28;20525;-88
2021/11/18 06:17:59;;;;;;;54.15;29.60;;;;;;;6.04;100.00;102165.06;5086407;28;20123;-87
2021/11/18 06:20:25;;;;;;;48.55;25.60;;;;;;;6.03;100.00;102171.31;5055127;28;20040;-87
2021/11/18 06:22:52;;;;;;;47.25;25.67;;;;;;;6.03;100.00;102173.16;5092103;28;20606;-87
2021/11/18 06:25:23;;;;;;;48.17;25.65;;;;;;;6.03;100.00;102179.31;5088667;28;20048;-87
2021/11/18 06:27:49;;;;;;;48.03;26.42;;;;;;;6.04;100.00;102173.06;5072071;28;20043;-87
2021/11/18 06:30:22;;;;;;;47.35;25.35;;;;;;;6.06;100.00;102179.13;5069031;28;20409;-90
2021/11/18 06:32:49;;;;;;;50.30;26.50;;;;;;;6.09;100.00;102189.56;5087040;28;20055;-86
2021/11/18 06:35:15;;;;;;;50.47;26.33;;;;;;;6.09;100.00;102184.25;5071739;28;20071;-89
2021/11/18 06:37:41;;;;;;;42.60;24.23;;;;;;;6.07;100.00;102190.63;5074064;28;20051;-87
2021/11/18 06:40:28;;;;;;;52.10;26.73;;;;;;;6.10;100.00;102195.78;5060662;28;20028;-87
2021/11/18 06:43:37;;;;;;;49.25;27.73;;;;;;;6.09;100.00;102189.56;5074491;28;20044;-89
2021/11/18 06:46:03;;;;;;;;;;;;;;;6.08;100.00;102195.88;5085246;28;20869;-86
2021/11/18 06:48:32;;;;;;;45.55;26.10;;;;;;;6.01;100.00;102191.91;5083956;28;19923;-88
2021/11/18 06:50:59;;;;;;;;;;;;;;;6.02;100.00;102176.78;5082319;28;20032;-87
2021/11/18 06:53:33;;;;;;;54.38;23.63;;;;;;;5.99;100.00;102187.63;5090802;28;19915;-87
2021/11/18 06:55:59;;;;;;;44.80;25.25;;;;;;;6.02;100.00;102182.94;5086353;28;20543;-87
2021/11/18 07:01:42;;;;;;;45.88;23.85;;;;;;;6.10;100.00;102183.31;5018671;28;20095;-88
2021/11/18 07:04:09;;;;;;;48.42;22.55;;;;;;;6.12;100.00;102193.84;5023505;28;20036;-87
2021/11/18 07:06:36;;;;;;;57.63;23.58;;;;;;;6.14;100.00;102188.44;5042499;28;20040;-89
2021/11/18 07:09:05;;;;;;;47.05;22.17;;;;;;;6.16;100.00;102198.03;5048451;28;20044;-87
2021/11/18 07:11:31;;;;;;;43.67;21.33;;;;;;;6.18;100.00;102203.25;5045756;28;20063;-87
2021/11/18 07:13:56;;;;;;;46.80;21.75;;;;;;;6.19;100.00;102200.50;5032277;28;20049;-87
2021/11/18 07:16:24;;;;;;;47.90;24.33;;;;;;;6.19;100.00;102194.31;5039097;28;20047;-87
2021/11/18 07:18:50;;;;;;;45.60;22.20;;;;;;;6.21;100.00;102208.38;5023096;28;20033;-86
2021/11/18 07:21:17;;;;;;;42.03;21.73;;;;;;;6.18;100.00;102203.25;5044811;28;20041;-87
2021/11/18 07:23:43;;;;;;;49.08;23.73;;;;;;;6.22;100.00;102210.13;5042137;28;20049;-87
2021/11/18 07:26:09;;;;;;;41.22;18.42;;;;;;;6.19;100.00;102213.84;5040868;28;20407;-88
2021/11/18 07:28:37;;;;;;;41.08;20.33;;;;;;;6.22;100.00;102204.78;5047114;28;20049;-87
2021/11/18 07:31:04;;;;;;;49.45;22.38;;;;;;;6.25;100.00;102204.56;5028568;28;20087;-87
2021/11/18 07:33:32;;;;;;;36.05;19.15;;;;;;;6.24;100.00;102209.06;5026225;28;20808;-87
2021/11/18 07:35:58;;;;;;;47.17;21.10;;;;;;;6.26;100.00;102216.94;5042852;28;20045;-87
2021/11/18 07:38:26;;;;;;;41.03;19.00;;;;;;;6.26;100.00;102236.44;5030994;28;20043;-87
2021/11/18 07:40:53;;;;;;;40.50;20.20;;;;;;;6.27;100.00;102240.84;5042697;28;20040;-88
2021/11/18 07:43:25;;;;;;;43.45;20.30;;;;;;;6.28;100.00;102236.38;5021338;28;20294;-87
2021/11/18 07:45:56;;;;;;;41.35;20.75;;;;;;;6.33;100.00;102247.59;5037120;28;20044;-87
2021/11/18 07:48:22;;;;;;;42.60;19.60;;;;;;;6.32;100.00;102241.38;5082847;28;20054;-88
2021/11/18 07:50:48;;;;;;;46.72;20.33;;;;;;;6.33;100.00;102245.78;5080114;28;20043;-87
2021/11/18 07:53:14;;;;;;;45.45;20.00;;;;;;;6.35;100.00;102234.13;5065217;28;20123;-88
2021/11/18 07:55:41;;;;;;;44.92;20.80;;;;;;;6.35;100.00;102247.47;5084437;28;20036;-88
2021/11/18 07:58:07;;;;;;;38.97;18.80;;;;;;;6.35;100.00;102240.31;5079606;28;20036;-88
2021/11/18 08:00:34;;;;;;;41.08;20.20;;;;;;;6.39;100.00;102252.50;5067496;28;20046;-88
2021/11/18 08:03:08;;;;;;;40.58;19.48;;;;;;;6.38;100.00;102248.13;5044260;28;20052;-88
2021/11/18 08:05:34;;;;;;;45.05;20.17;;;;;;;6.37;100.00;102241.06;5082877;28;20447;-87
2021/11/18 08:07:59;;;;;;;42.85;20.48;;;;;;;6.39;100.00;102232.97;5082907;28;20035;-87
2021/11/18 08:10:34;;;;;;;36.95;19.42;;;;;;;6.38;100.00;102225.94;5065621;28;20521;-87
2021/11/18 08:13:00;;;;;;;45.63;18.33;;;;;;;6.36;100.00;102227.84;5081743;28;20440;-87
2021/11/18 08:15:27;;;;;;;48.47;21.65;;;;;;;6.37;100.00;102230.41;5066291;28;20043;-87
2021/11/18 08:17:53;;;;;;;48.97;20.60;;;;;;;6.36;100.00;102228.72;5081532;28;20509;-88
2021/11/18 08:20:20;;;;;;;42.50;21.20;;;;;;;6.38;100.00;102228.59;5065495;28;20046;-88
2021/11/18 08:22:46;;;;;;;47.72;21.48;;;;;;;6.39;100.00;102231.19;5082297;28;20500;-88
2021/11/18 08:25:14;;;;;;;35.92;19.00;;;;;;;6.41;100.00;102242.56;5081834;28;20397;-88
2021/11/18 08:27:59;;;;;;;46.63;19.92;;;;;;;6.45;100.00;102245.91;5083973;28;20039;-87
2021/11/18 08:30:29;;;;;;;45.05;20.75;;;;;;;6.45;100.00;102245.91;5051272;28;20177;-88
2021/11/18 08:33:02;;;;;;;43.65;21.50;;;;;;;6.49;100.00;102250.94;5072006;28;20040;-88
2021/11/18 08:35:31;;;;;;;47.03;20.92;;;;;;;6.52;100.00;102247.19;5081757;28;20048;-88
2021/11/18 08:38:04;;;;;;;47.60;20.52;;;;;;;6.53;100.00;102239.13;5079634;28;20212;-88
2021/11/18 08:40:30;;;;;;;38.17;18.83;;;;;;;6.56;100.00;102232.72;5080487;28;20040;-87
2021/11/18 08:42:55;;;;;;;48.88;17.88;;;;;;;6.59;100.00;102256.53;5062533;28;20114;-88
2021/11/18 08:45:21;;;;;;;34.35;17.73;;;;;;;6.62;100.00;102255.44;5046836;28;20048;-87
2021/11/18 08:47:47;;;;;;;36.17;18.48;;;;;;;6.64;100.00;102246.38;5081657;28;20032;-88
2021/11/18 08:50:17;;;;;;;43.55;19.83;;;;;;;6.71;100.00;102257.50;5064341;28;20036;-88
2021/11/18 08:52:43;;;;;;;;;;;;;;;6.76;100.00;102258.03;5082370;28;20040;-87
2021/11/18 08:55:14;;;;;;;34.83;17.17;;;;;;;6.72;100.00;102251.19;5083117;28;19972;-88
2021/11/18 08:57:40;;;;;;;36.85;19.85;;;;;;;6.76;100.00;102247.34;5077664;28;20044;-88
2021/11/18 09:00:12;;;;;;;40.38;17.83;;;;;;;6.79;100.00;102236.50;5079237;28;20042;-88
2021/11/18 09:02:39;;;;;;;35.80;15.32;;;;;;;6.82;100.00;102230.97;5079012;28;20083;-88
2021/11/18 09:05:05;;;;;;;41.33;17.60;;;;;;;6.89;100.00;102224.22;5061537;28;20126;-88
2021/11/18 09:07:30;;;;;;;41.33;19.00;;;;;;;6.93;100.00;102233.75;5064049;28;20051;-88
2021/11/18 09:09:56;;;;;;;45.70;21.17;;;;;;;6.95;100.00;102237.13;5064250;28;20044;-88
2021/11/18 09:12:23;;;;;;;42.22;16.35;;;;;;;6.98;100.00;102246.75;5082891;28;20051;-88
2021/11/18 09:14:49;;;;;;;39.30;18.45;;;;;;;7.04;100.00;102246.31;5048037;28;20545;-89
2021/11/18 09:17:17;;;;;;;36.13;16.17;;;;;;;7.12;100.00;102238.66;5057479;28;20036;-85
2021/11/18 09:19:43;;;;;;;37.37;18.77;;;;;;;7.18;100.00;102253.38;5054250;28;20048;-86
2021/11/18 09:22:11;;;;;;;38.78;17.75;;;;;;;7.23;100.00;102253.94;5075054;28;20327;-87
2021/11/18 09:24:46;;;;;;;35.15;15.80;;;;;;;7.27;100.00;102260.75;5105935;28;20096;-86
2021/11/18 09:27:44;;;;;;;36.65;16.55;;;;;;;7.29;100.00;102256.16;5063741;28;20452;-86
2021/11/18 09:30:22;;;;;;;36.65;16.55;;;;;;;7.31;100.00;102286.31;5065315;28;20084;-86
2021/11/18 09:32:48;;;;;;;35.00;17.47;;;;;;;7.39;100.00;102273.28;5081721;28;20548;-86
2021/11/18 09:35:21;;;;;;;41.80;16.75;;;;;;;7.44;100.00;102272.94;5066571;28;20126;-86
2021/11/18 09:37:47;;;;;;;33.33;14.50;;;;;;;7.49;100.00;102270.78;5082243;28;20515;-86
2021/11/18 09:40:16;;;;;;;39.85;16.13;;;;;;;7.53;100.00;102279.44;5073491;28;20173;-86
2021/11/18 09:43:12;;;;;;;37.30;16.60;;;;;;;7.60;100.00;102284.25;5081749;28;20126;-86
2021/11/18 09:45:50;;;;;;;35.15;16.98;;;;;;;7.66;100.00;102270.44;5043040;28;20521;-85
2021/11/18 09:48:56;;;;;;;41.13;17.52;;;;;;;7.69;100.00;102280.91;5080634;28;20044;-86
2021/11/18 09:51:58;;;;;;;34.20;16.35;;;;;;;7.75;100.00;102271.63;4983951;28;20445;-86
2021/11/18 09:54:43;;;;;;;36.90;16.70;;;;;;;7.78;100.00;102262.53;5061360;28;20050;-86
2021/11/18 09:57:37;;;;;;;34.95;16.75;;;;;;;7.79;100.00;102265.06;5075716;28;20678;-86
2021/11/18 10:00:10;;;;;;;37.75;16.70;;;;;;;7.86;100.00;102271.69;5063057;28;20032;-86
2021/11/18 10:02:58;;;;;;;32.72;15.80;;;;;;;7.90;100.00;102267.81;5064449;28;20048;-87
2021/11/18 10:05:37;;;;;;;39.38;15.63;;;;;;;7.94;100.00;102272.94;5063677;28;20044;-86
2021/11/18 10:08:16;;;;;;;37.40;17.20;;;;;;;7.98;100.00;102271.78;5081303;28;20435;-86
2021/11/18 10:10:54;;;;;;;34.27;18.10;;;;;;;7.98;100.00;102269.97;5082308;28;20042;-86
2021/11/18 10:13:39;;;;;;;45.25;16.77;;;;;;;7.98;100.00;102267.28;5061344;28;20069;-86
2021/11/18 10:16:22;;;;;;;31.83;14.73;;;;;;;8.00;100.00;102272.50;5080503;28;20063;-86
2021/11/18 10:18:51;;;;;;;38.50;16.40;;;;;;;8.00;100.00;102278.72;5059723;28;20037;-86
2021/11/18 10:21:25;;;;;;;37.38;16.50;;;;;;;8.05;100.00;102265.84;5066351;28;20044;-88
2021/11/18 10:24:00;;;;;;;35.05;16.50;;;;;;;8.05;100.00;102265.84;5084487;28;20044;-86
2021/11/18 10:26:45;;;;;;;34.08;15.75;;;;;;;8.10;100.00;102249.50;5085997;28;20693;-86
2021/11/18 10:29:24;;;;;;;38.28;16.50;;;;;;;8.14;100.00;102258.97;5078311;28;20044;-86
2021/11/18 10:32:09;;;;;;;30.55;15.10;;;;;;;8.16;100.00;102266.91;5083605;28;20032;-87
2021/11/18 10:34:50;;;;;;;37.92;17.35;;;;;;;8.19;100.00;102251.47;5084542;28;20597;-86
2021/11/18 10:37:22;;;;;;;29.30;15.32;;;;;;;8.28;100.00;102234.75;5069531;28;20047;-86
2021/11/18 10:40:16;;;;;;;37.20;16.23;;;;;;;8.29;100.00;102241.81;5064413;28;20044;-86
2021/11/18 10:43:17;;;;;;;30.70;14.23;;;;;;;8.34;100.00;102242.34;5068427;28;20052;-86
2021/11/18 10:45:46;;;;;;;35.33;14.45;;;;;;;8.47;100.00;102238.78;5080086;28;20036;-86
2021/11/18 10:48:23;;;;;;;33.50;15.18;;;;;;;8.48;100.00;102229.75;5061778;28;20454;-86
2021/11/18 10:50:59;;;;;;;40.45;16.88;;;;;;;8.51;100.00;102242.91;5061826;28;20040;-88
2021/11/18 10:53:28;;;;;;;36.35;15.32;;;;;;;8.58;100.00;102242.34;5067013;28;20097;-86
2021/11/18 10:55:59;;;;;;;30.23;13.90;;;;;;;8.62;100.00;102226.91;5083430;28;20040;-87
2021/11/18 10:58:25;;;;;;;28.75;12.45;;;;;;;8.63;100.00;102238.44;5066596;28;20044;-87
2021/11/18 11:00:55;;;;;;;32.60;15.07;;;;;;;8.66;100.00;102244.44;5066572;28;20089;-87
2021/11/18 11:03:35;;;;;;;31.38;14.20;;;;;;;8.75;100.00;102233.03;5064802;28;20128;-86
2021/11/18 11:06:49;;;;;;;27.80;14.13;;;;;;;8.78;100.00;102222.09;5078930;28;20056;-87
2021/11/18 11:09:20;;;;;;;28.42;14.10;;;;;;;8.76;100.00;102228.53;5030165;28;20371;-86
2021/11/18 11:12:02;;;;;;;34.42;15.05;;;;;;;8.79;100.00;102213.09;5082829;28;20060;-87
2021/11/18 11:15:02;;;;;;;34.30;14.77;;;;;;;8.87;100.00;102214.34;5047522;28;20194;-87
2021/11/18 11:18:10;;;;;;;29.90;11.00;;;;;;;8.92;100.00;102217.47;5034058;28;20047;-86
2021/11/18 11:21:07;;;;;;;25.15;11.68;;;;;;;9.01;100.00;102198.03;5054987;28;20035;-87
2021/11/18 11:24:10;;;;;;;22.02;11.32;;;;;;;9.02;100.00;102210.44;5047090;28;20067;-87
2021/11/18 11:27:06;;;;;;;27.80;12.90;;;;;;;9.00;100.00;102225.78;5053228;28;20104;-87